sensor_id;sensor_type;location;lat;lon;timestamp;temperature;humidity
39969;DHT22;25648;47.808;19.004;2022-09-20T00:00:47;17.60;66.70
39969;DHT22;25648;47.808;19.004;2022-09-20T00:03:15;17.50;66.90
39969;DHT22;25648;47.808;19.004;2022-09-20T00:05:42;17.90;65.50
39969;DHT22;25648;47.808;19.004;2022-09-20T00:08:14;18.40;64.40
39969;DHT22;25648;47.808;19.004;2022-09-20T00:10:40;18.50;64.20
39969;DHT22;25648;47.808;19.004;2022-09-20T00:13:10;18.30;64.80
39969;DHT22;25648;47.808;19.004;2022-09-20T00:15:43;18.40;64.60
39969;DHT22;25648;47.808;19.004;2022-09-20T00:18:10;18.60;63.60
39969;DHT22;25648;47.808;19.004;2022-09-20T00:20:42;18.60;63.70
39969;DHT22;25648;47.808;19.004;2022-09-20T00:23:08;18.80;63.20
39969;DHT22;25648;47.808;19.004;2022-09-20T00:25:34;18.80;63.30
39969;DHT22;25648;47.808;19.004;2022-09-20T00:27:59;18.90;63.00
39969;DHT22;25648;47.808;19.004;2022-09-20T00:30:25;19.00;62.80
39969;DHT22;25648;47.808;19.004;2022-09-20T00:32:51;18.50;63.20
39969;DHT22;25648;47.808;19.004;2022-09-20T00:35:17;18.50;63.60
39969;DHT22;25648;47.808;19.004;2022-09-20T00:37:43;18.40;63.50
39969;DHT22;25648;47.808;19.004;2022-09-20T00:40:12;18.10;64.60
39969;DHT22;25648;47.808;19.004;2022-09-20T00:42:38;18.20;64.10
39969;DHT22;25648;47.808;19.004;2022-09-20T00:45:05;18.20;64.60
39969;DHT22;25648;47.808;19.004;2022-09-20T00:47:42;18.40;64.10
39969;DHT22;25648;47.808;19.004;2022-09-20T00:52:38;18.70;62.50
39969;DHT22;25648;47.808;19.004;2022-09-20T00:55:08;18.70;63.00
39969;DHT22;25648;47.808;19.004;2022-09-20T00:57:34;18.90;62.70
39969;DHT22;25648;47.808;19.004;2022-09-20T01:00:07;19.10;62.10
39969;DHT22;25648;47.808;19.004;2022-09-20T01:02:36;19.30;61.20
39969;DHT22;25648;47.808;19.004;2022-09-20T01:05:03;19.30;61.00
39969;DHT22;25648;47.808;19.004;2022-09-20T01:07:29;19.30;61.30
39969;DHT22;25648;47.808;19.004;2022-09-20T01:09:55;19.10;61.40
39969;DHT22;25648;47.808;19.004;2022-09-20T01:12:28;18.90;61.60
39969;DHT22;25648;47.808;19.004;2022-09-20T01:14:55;18.90;61.20
39969;DHT22;25648;47.808;19.004;2022-09-20T01:17:28;18.70;61.70
39969;DHT22;25648;47.808;19.004;2022-09-20T01:23:13;18.90;61.30
39969;DHT22;25648;47.808;19.004;2022-09-20T01:28:37;19.10;61.20
39969;DHT22;25648;47.808;19.004;2022-09-20T01:33:31;19.10;60.70
39969;DHT22;25648;47.808;19.004;2022-09-20T01:36:02;19.00;60.70
39969;DHT22;25648;47.808;19.004;2022-09-20T01:38:43;18.80;61.20
39969;DHT22;25648;47.808;19.004;2022-09-20T01:42:24;18.60;62.00
39969;DHT22;25648;47.808;19.004;2022-09-20T01:44:37;18.70;61.50
39969;DHT22;25648;47.808;19.004;2022-09-20T01:47:14;18.70;61.80
39969;DHT22;25648;47.808;19.004;2022-09-20T01:50:21;18.80;61.50
39969;DHT22;25648;47.808;19.004;2022-09-20T02:09:38;17.90;63.60
39969;DHT22;25648;47.808;19.004;2022-09-20T02:25:54;18.20;62.50
39969;DHT22;25648;47.808;19.004;2022-09-20T02:31:21;18.60;61.90
39969;DHT22;25648;47.808;19.004;2022-09-20T02:43:03;18.40;62.10
39969;DHT22;25648;47.808;19.004;2022-09-20T02:47:52;18.20;62.30
39969;DHT22;25648;47.808;19.004;2022-09-20T02:50:34;17.70;63.40
39969;DHT22;25648;47.808;19.004;2022-09-20T03:18:40;18.60;61.90
39969;DHT22;25648;47.808;19.004;2022-09-20T03:23:21;18.10;62.80
39969;DHT22;25648;47.808;19.004;2022-09-20T03:25:56;17.80;63.50
39969;DHT22;25648;47.808;19.004;2022-09-20T03:31:13;18.00;63.40
39969;DHT22;25648;47.808;19.004;2022-09-20T03:33:46;18.00;63.20
39969;DHT22;25648;47.808;19.004;2022-09-20T03:42:21;18.60;61.70
39969;DHT22;25648;47.808;19.004;2022-09-20T03:48:17;18.30;61.90
39969;DHT22;25648;47.808;19.004;2022-09-20T03:55:51;18.30;62.50
39969;DHT22;25648;47.808;19.004;2022-09-20T03:58:50;18.50;61.30
39969;DHT22;25648;47.808;19.004;2022-09-20T04:04:29;18.20;62.00
39969;DHT22;25648;47.808;19.004;2022-09-20T04:07:21;18.30;61.80
39969;DHT22;25648;47.808;19.004;2022-09-20T04:10:08;18.10;62.30
39969;DHT22;25648;47.808;19.004;2022-09-20T04:18:50;18.40;61.50
39969;DHT22;25648;47.808;19.004;2022-09-20T04:27:26;18.20;61.80
39969;DHT22;25648;47.808;19.004;2022-09-20T04:30:24;17.80;62.70
39969;DHT22;25648;47.808;19.004;2022-09-20T04:33:13;17.80;62.80
39969;DHT22;25648;47.808;19.004;2022-09-20T04:35:59;17.70;63.20
39969;DHT22;25648;47.808;19.004;2022-09-20T04:38:57;17.60;63.10
39969;DHT22;25648;47.808;19.004;2022-09-20T04:56:19;17.60;63.10
39969;DHT22;25648;47.808;19.004;2022-09-20T04:59:09;17.60;63.50
39969;DHT22;25648;47.808;19.004;2022-09-20T05:04:55;17.80;62.90
39969;DHT22;25648;47.808;19.004;2022-09-20T05:16:04;17.70;62.80
39969;DHT22;25648;47.808;19.004;2022-09-20T05:30:01;18.10;62.10
39969;DHT22;25648;47.808;19.004;2022-09-20T05:32:51;18.20;61.80
39969;DHT22;25648;47.808;19.004;2022-09-20T05:38:23;18.20;62.30
39969;DHT22;25648;47.808;19.004;2022-09-20T05:50:04;18.60;61.40
39969;DHT22;25648;47.808;19.004;2022-09-20T05:52:54;18.70;61.50
39969;DHT22;25648;47.808;19.004;2022-09-20T06:01:24;18.30;62.10
39969;DHT22;25648;47.808;19.004;2022-09-20T06:04:20;18.30;62.60
39969;DHT22;25648;47.808;19.004;2022-09-20T06:10:04;18.40;62.50
39969;DHT22;25648;47.808;19.004;2022-09-20T06:22:45;18.70;62.00
39969;DHT22;25648;47.808;19.004;2022-09-20T06:25:22;18.90;61.50
39969;DHT22;25648;47.808;19.004;2022-09-20T06:31:16;19.10;60.70
39969;DHT22;25648;47.808;19.004;2022-09-20T06:36:35;19.10;60.60
39969;DHT22;25648;47.808;19.004;2022-09-20T06:39:48;19.20;60.90
39969;DHT22;25648;47.808;19.004;2022-09-20T06:42:34;19.50;60.50
39969;DHT22;25648;47.808;19.004;2022-09-20T06:45:00;19.40;60.40
39969;DHT22;25648;47.808;19.004;2022-09-20T06:47:26;19.50;60.30
39969;DHT22;25648;47.808;19.004;2022-09-20T06:49:55;19.90;59.70
39969;DHT22;25648;47.808;19.004;2022-09-20T06:52:21;20.00;59.50
39969;DHT22;25648;47.808;19.004;2022-09-20T06:54:49;20.20;58.90
39969;DHT22;25648;47.808;19.004;2022-09-20T06:57:21;20.20;58.70
39969;DHT22;25648;47.808;19.004;2022-09-20T06:59:48;20.20;59.30
39969;DHT22;25648;47.808;19.004;2022-09-20T07:02:13;20.20;58.70
39969;DHT22;25648;47.808;19.004;2022-09-20T07:04:39;20.10;58.80
39969;DHT22;25648;47.808;19.004;2022-09-20T07:07:06;20.20;58.60
39969;DHT22;25648;47.808;19.004;2022-09-20T07:09:33;20.20;58.70
39969;DHT22;25648;47.808;19.004;2022-09-20T07:11:58;20.00;58.80
39969;DHT22;25648;47.808;19.004;2022-09-20T07:14:25;19.80;59.10
39969;DHT22;25648;47.808;19.004;2022-09-20T07:16:52;19.60;60.10
39969;DHT22;25648;47.808;19.004;2022-09-20T07:19:18;19.70;60.00
39969;DHT22;25648;47.808;19.004;2022-09-20T07:21:44;20.00;59.60
39969;DHT22;25648;47.808;19.004;2022-09-20T07:24:09;20.00;59.00
39969;DHT22;25648;47.808;19.004;2022-09-20T07:26:35;20.00;59.30
39969;DHT22;25648;47.808;19.004;2022-09-20T07:29:03;19.80;58.90
39969;DHT22;25648;47.808;19.004;2022-09-20T07:31:29;19.90;59.40
39969;DHT22;25648;47.808;19.004;2022-09-20T07:33:55;19.60;59.80
39969;DHT22;25648;47.808;19.004;2022-09-20T07:36:21;19.60;59.90
39969;DHT22;25648;47.808;19.004;2022-09-20T07:38:51;19.50;60.70
39969;DHT22;25648;47.808;19.004;2022-09-20T07:41:18;19.60;60.30
39969;DHT22;25648;47.808;19.004;2022-09-20T07:43:45;19.80;59.70
39969;DHT22;25648;47.808;19.004;2022-09-20T07:46:11;20.00;58.80
39969;DHT22;25648;47.808;19.004;2022-09-20T07:48:40;19.90;59.80
39969;DHT22;25648;47.808;19.004;2022-09-20T07:51:10;20.10;60.00
39969;DHT22;25648;47.808;19.004;2022-09-20T07:53:38;20.30;59.50
39969;DHT22;25648;47.808;19.004;2022-09-20T07:58:33;20.90;57.90
39969;DHT22;25648;47.808;19.004;2022-09-20T08:01:07;20.80;58.50
39969;DHT22;25648;47.808;19.004;2022-09-20T08:03:33;20.80;58.10
39969;DHT22;25648;47.808;19.004;2022-09-20T08:06:04;20.90;57.90
39969;DHT22;25648;47.808;19.004;2022-09-20T08:08:35;20.70;58.50
39969;DHT22;25648;47.808;19.004;2022-09-20T08:11:15;21.00;58.50
39969;DHT22;25648;47.808;19.004;2022-09-20T08:13:47;20.90;57.40
39969;DHT22;25648;47.808;19.004;2022-09-20T08:16:14;20.30;58.60
39969;DHT22;25648;47.808;19.004;2022-09-20T08:18:52;20.20;58.60
39969;DHT22;25648;47.808;19.004;2022-09-20T08:21:20;20.10;58.90
39969;DHT22;25648;47.808;19.004;2022-09-20T08:23:46;20.20;59.20
39969;DHT22;25648;47.808;19.004;2022-09-20T08:26:14;20.60;59.10
39969;DHT22;25648;47.808;19.004;2022-09-20T08:28:43;20.90;58.60
39969;DHT22;25648;47.808;19.004;2022-09-20T08:31:17;20.70;57.50
39969;DHT22;25648;47.808;19.004;2022-09-20T08:33:44;20.40;58.20
39969;DHT22;25648;47.808;19.004;2022-09-20T08:36:16;20.50;58.60
39969;DHT22;25648;47.808;19.004;2022-09-20T08:38:42;20.60;58.80
39969;DHT22;25648;47.808;19.004;2022-09-20T08:41:13;20.40;58.50
39969;DHT22;25648;47.808;19.004;2022-09-20T08:44:01;20.50;58.90
39969;DHT22;25648;47.808;19.004;2022-09-20T08:46:31;20.90;57.10
39969;DHT22;25648;47.808;19.004;2022-09-20T08:48:58;20.80;57.90
39969;DHT22;25648;47.808;19.004;2022-09-20T08:51:29;21.00;57.50
39969;DHT22;25648;47.808;19.004;2022-09-20T08:53:55;20.90;57.70
39969;DHT22;25648;47.808;19.004;2022-09-20T08:56:25;21.10;57.70
39969;DHT22;25648;47.808;19.004;2022-09-20T08:58:56;21.20;56.90
39969;DHT22;25648;47.808;19.004;2022-09-20T09:01:26;21.20;57.40
39969;DHT22;25648;47.808;19.004;2022-09-20T09:04:14;21.60;57.10
39969;DHT22;25648;47.808;19.004;2022-09-20T09:06:41;21.80;55.50
39969;DHT22;25648;47.808;19.004;2022-09-20T09:11:43;21.80;55.20
39969;DHT22;25648;47.808;19.004;2022-09-20T09:17:09;21.90;54.90
39969;DHT22;25648;47.808;19.004;2022-09-20T09:22:38;22.60;55.70
39969;DHT22;25648;47.808;19.004;2022-09-20T09:27:31;22.50;54.90
39969;DHT22;25648;47.808;19.004;2022-09-20T09:29:57;22.80;55.20
39969;DHT22;25648;47.808;19.004;2022-09-20T09:32:26;23.20;54.50
39969;DHT22;25648;47.808;19.004;2022-09-20T09:34:54;23.10;53.60
39969;DHT22;25648;47.808;19.004;2022-09-20T09:37:25;23.00;53.60
39969;DHT22;25648;47.808;19.004;2022-09-20T09:42:34;22.90;54.20
39969;DHT22;25648;47.808;19.004;2022-09-20T09:45:27;23.00;54.30
39969;DHT22;25648;47.808;19.004;2022-09-20T09:47:55;22.80;54.70
39969;DHT22;25648;47.808;19.004;2022-09-20T09:50:24;22.50;54.90
39969;DHT22;25648;47.808;19.004;2022-09-20T10:01:05;23.20;54.40
39969;DHT22;25648;47.808;19.004;2022-09-20T10:04:04;23.30;54.20
39969;DHT22;25648;47.808;19.004;2022-09-20T10:06:47;23.30;53.00
39969;DHT22;25648;47.808;19.004;2022-09-20T10:15:00;22.80;53.60
39969;DHT22;25648;47.808;19.004;2022-09-20T10:20:34;23.30;54.10
39969;DHT22;25648;47.808;19.004;2022-09-20T10:29:08;23.40;53.40
39969;DHT22;25648;47.808;19.004;2022-09-20T10:31:50;23.30;53.10
39969;DHT22;25648;47.808;19.004;2022-09-20T10:37:13;23.10;52.70
39969;DHT22;25648;47.808;19.004;2022-09-20T10:39:40;22.80;53.20
39969;DHT22;25648;47.808;19.004;2022-09-20T10:47:59;23.10;52.70
39969;DHT22;25648;47.808;19.004;2022-09-20T10:50:54;23.40;51.50
39969;DHT22;25648;47.808;19.004;2022-09-20T10:59:18;23.90;51.50
39969;DHT22;25648;47.808;19.004;2022-09-20T11:02:02;24.00;51.10
39969;DHT22;25648;47.808;19.004;2022-09-20T11:07:51;23.10;51.20
39969;DHT22;25648;47.808;19.004;2022-09-20T11:10:47;22.70;51.70
39969;DHT22;25648;47.808;19.004;2022-09-20T11:15:47;22.60;52.10
39969;DHT22;25648;47.808;19.004;2022-09-20T11:18:36;22.60;53.00
39969;DHT22;25648;47.808;19.004;2022-09-20T11:21:26;23.00;51.60
39969;DHT22;25648;47.808;19.004;2022-09-20T11:23:59;23.10;50.70
39969;DHT22;25648;47.808;19.004;2022-09-20T11:26:47;23.20;51.40
39969;DHT22;25648;47.808;19.004;2022-09-20T11:31:45;22.90;52.10
39969;DHT22;25648;47.808;19.004;2022-09-20T11:34:31;22.90;52.90
39969;DHT22;25648;47.808;19.004;2022-09-20T11:37:02;23.20;52.70
39969;DHT22;25648;47.808;19.004;2022-09-20T11:39:38;23.10;52.30
39969;DHT22;25648;47.808;19.004;2022-09-20T11:42:14;23.00;52.20
39969;DHT22;25648;47.808;19.004;2022-09-20T11:44:41;23.10;52.70
39969;DHT22;25648;47.808;19.004;2022-09-20T11:52:14;23.50;53.20
39969;DHT22;25648;47.808;19.004;2022-09-20T11:55:12;23.50;52.50
39969;DHT22;25648;47.808;19.004;2022-09-20T11:57:40;23.70;51.70
39969;DHT22;25648;47.808;19.004;2022-09-20T12:00:06;23.70;51.60
39969;DHT22;25648;47.808;19.004;2022-09-20T12:05:35;24.00;52.00
39969;DHT22;25648;47.808;19.004;2022-09-20T12:08:06;24.30;51.90
39969;DHT22;25648;47.808;19.004;2022-09-20T12:10:36;24.30;50.60
39969;DHT22;25648;47.808;19.004;2022-09-20T12:13:33;24.20;50.70
39969;DHT22;25648;47.808;19.004;2022-09-20T12:16:06;23.90;51.90
39969;DHT22;25648;47.808;19.004;2022-09-20T12:18:45;24.10;51.30
39969;DHT22;25648;47.808;19.004;2022-09-20T12:21:21;24.10;51.10
39969;DHT22;25648;47.808;19.004;2022-09-20T12:28:58;23.40;50.70
39969;DHT22;25648;47.808;19.004;2022-09-20T12:36:31;22.90;51.30
39969;DHT22;25648;47.808;19.004;2022-09-20T12:47:14;22.90;52.30
39969;DHT22;25648;47.808;19.004;2022-09-20T13:03:29;22.10;54.60
39969;DHT22;25648;47.808;19.004;2022-09-20T13:16:45;23.00;51.10
39969;DHT22;25648;47.808;19.004;2022-09-20T13:22:00;23.50;50.90
39969;DHT22;25648;47.808;19.004;2022-09-20T13:24:30;23.30;51.00
39969;DHT22;25648;47.808;19.004;2022-09-20T13:27:18;23.20;52.10
39969;DHT22;25648;47.808;19.004;2022-09-20T13:29:46;22.70;52.00
39969;DHT22;25648;47.808;19.004;2022-09-20T13:32:30;22.50;52.60
39969;DHT22;25648;47.808;19.004;2022-09-20T13:37:32;22.30;53.10
39969;DHT22;25648;47.808;19.004;2022-09-20T13:39:59;22.50;53.60
39969;DHT22;25648;47.808;19.004;2022-09-20T13:42:27;22.70;52.90
39969;DHT22;25648;47.808;19.004;2022-09-20T13:44:55;22.80;51.60
39969;DHT22;25648;47.808;19.004;2022-09-20T13:47:29;22.30;52.90
39969;DHT22;25648;47.808;19.004;2022-09-20T13:50:17;22.20;53.20
39969;DHT22;25648;47.808;19.004;2022-09-20T13:52:50;22.30;53.30
39969;DHT22;25648;47.808;19.004;2022-09-20T13:57:53;22.20;54.10
39969;DHT22;25648;47.808;19.004;2022-09-20T14:00:20;22.40;54.30
39969;DHT22;25648;47.808;19.004;2022-09-20T14:02:47;22.70;53.10
39969;DHT22;25648;47.808;19.004;2022-09-20T14:05:18;22.70;53.70
39969;DHT22;25648;47.808;19.004;2022-09-20T14:07:45;22.60;53.60
39969;DHT22;25648;47.808;19.004;2022-09-20T14:10:37;22.50;53.80
39969;DHT22;25648;47.808;19.004;2022-09-20T14:13:07;22.10;53.00
39969;DHT22;25648;47.808;19.004;2022-09-20T14:15:42;21.80;53.70
39969;DHT22;25648;47.808;19.004;2022-09-20T14:18:13;22.00;53.70
39969;DHT22;25648;47.808;19.004;2022-09-20T14:20:42;22.10;53.70
39969;DHT22;25648;47.808;19.004;2022-09-20T14:23:25;22.10;53.90
39969;DHT22;25648;47.808;19.004;2022-09-20T14:28:45;22.20;54.20
39969;DHT22;25648;47.808;19.004;2022-09-20T14:31:29;22.10;53.60
39969;DHT22;25648;47.808;19.004;2022-09-20T14:33:58;21.80;53.90
39969;DHT22;25648;47.808;19.004;2022-09-20T14:36:27;21.90;53.80
39969;DHT22;25648;47.808;19.004;2022-09-20T14:39:03;22.10;53.90
39969;DHT22;25648;47.808;19.004;2022-09-20T14:41:40;22.10;53.70
39969;DHT22;25648;47.808;19.004;2022-09-20T14:44:27;21.80;54.30
39969;DHT22;25648;47.808;19.004;2022-09-20T14:46:55;21.60;54.70
39969;DHT22;25648;47.808;19.004;2022-09-20T14:54:35;22.20;54.20
39969;DHT22;25648;47.808;19.004;2022-09-20T14:57:01;22.50;54.20
39969;DHT22;25648;47.808;19.004;2022-09-20T14:59:35;22.70;53.90
39969;DHT22;25648;47.808;19.004;2022-09-20T15:02:12;22.70;53.70
39969;DHT22;25648;47.808;19.004;2022-09-20T15:04:40;22.40;54.50
39969;DHT22;25648;47.808;19.004;2022-09-20T15:07:08;22.20;54.40
39969;DHT22;25648;47.808;19.004;2022-09-20T15:09:37;21.80;55.10
39969;DHT22;25648;47.808;19.004;2022-09-20T15:12:05;21.50;55.80
39969;DHT22;25648;47.808;19.004;2022-09-20T15:14:31;21.40;55.70
39969;DHT22;25648;47.808;19.004;2022-09-20T15:16:58;21.40;54.60
39969;DHT22;25648;47.808;19.004;2022-09-20T15:19:25;21.10;54.80
39969;DHT22;25648;47.808;19.004;2022-09-20T15:21:51;21.10;54.20
39969;DHT22;25648;47.808;19.004;2022-09-20T15:24:17;21.20;54.20
39969;DHT22;25648;47.808;19.004;2022-09-20T15:26:44;21.20;53.80
39969;DHT22;25648;47.808;19.004;2022-09-20T15:29:14;20.90;54.60
39969;DHT22;25648;47.808;19.004;2022-09-20T15:31:41;21.00;55.10
39969;DHT22;25648;47.808;19.004;2022-09-20T15:34:07;21.20;54.60
39969;DHT22;25648;47.808;19.004;2022-09-20T15:36:33;21.50;54.20
39969;DHT22;25648;47.808;19.004;2022-09-20T15:38:59;21.40;54.10
39969;DHT22;25648;47.808;19.004;2022-09-20T15:41:24;21.10;54.90
39969;DHT22;25648;47.808;19.004;2022-09-20T15:43:50;21.20;55.00
39969;DHT22;25648;47.808;19.004;2022-09-20T15:46:18;21.30;54.50
39969;DHT22;25648;47.808;19.004;2022-09-20T15:48:44;21.20;54.70
39969;DHT22;25648;47.808;19.004;2022-09-20T15:51:11;21.30;54.60
39969;DHT22;25648;47.808;19.004;2022-09-20T15:53:41;21.40;54.90
39969;DHT22;25648;47.808;19.004;2022-09-20T15:56:20;21.40;54.80
39969;DHT22;25648;47.808;19.004;2022-09-20T15:58:49;21.60;55.00
39969;DHT22;25648;47.808;19.004;2022-09-20T16:01:16;21.60;54.60
39969;DHT22;25648;47.808;19.004;2022-09-20T16:03:44;21.60;54.30
39969;DHT22;25648;47.808;19.004;2022-09-20T16:06:11;21.10;55.20
39969;DHT22;25648;47.808;19.004;2022-09-20T16:08:39;21.00;55.40
39969;DHT22;25648;47.808;19.004;2022-09-20T16:11:07;21.00;54.90
39969;DHT22;25648;47.808;19.004;2022-09-20T16:13:33;20.70;55.10
39969;DHT22;25648;47.808;19.004;2022-09-20T16:16:02;20.70;54.80
39969;DHT22;25648;47.808;19.004;2022-09-20T16:18:28;20.70;55.20
39969;DHT22;25648;47.808;19.004;2022-09-20T16:21:15;20.60;54.80
39969;DHT22;25648;47.808;19.004;2022-09-20T16:23:45;20.70;55.10
39969;DHT22;25648;47.808;19.004;2022-09-20T16:26:11;21.00;54.80
39969;DHT22;25648;47.808;19.004;2022-09-20T16:28:40;21.00;54.10
39969;DHT22;25648;47.808;19.004;2022-09-20T16:31:28;21.10;54.50
39969;DHT22;25648;47.808;19.004;2022-09-20T16:33:52;21.10;54.40
39969;DHT22;25648;47.808;19.004;2022-09-20T16:36:18;21.20;54.40
39969;DHT22;25648;47.808;19.004;2022-09-20T16:38:43;20.90;54.50
39969;DHT22;25648;47.808;19.004;2022-09-20T16:41:09;20.80;55.00
39969;DHT22;25648;47.808;19.004;2022-09-20T16:43:36;21.00;54.70
39969;DHT22;25648;47.808;19.004;2022-09-20T16:46:07;21.10;55.00
39969;DHT22;25648;47.808;19.004;2022-09-20T16:48:34;21.20;54.80
39969;DHT22;25648;47.808;19.004;2022-09-20T16:51:00;21.10;54.90
39969;DHT22;25648;47.808;19.004;2022-09-20T16:53:27;21.20;55.00
39969;DHT22;25648;47.808;19.004;2022-09-20T16:55:53;21.20;54.90
39969;DHT22;25648;47.808;19.004;2022-09-20T16:58:28;21.20;54.50
39969;DHT22;25648;47.808;19.004;2022-09-20T17:01:05;20.90;55.10
39969;DHT22;25648;47.808;19.004;2022-09-20T17:03:31;20.80;54.90
39969;DHT22;25648;47.808;19.004;2022-09-20T17:06:01;20.80;55.00
39969;DHT22;25648;47.808;19.004;2022-09-20T17:08:31;20.80;54.80
39969;DHT22;25648;47.808;19.004;2022-09-20T17:11:09;20.80;55.10
39969;DHT22;25648;47.808;19.004;2022-09-20T17:13:38;20.70;54.90
39969;DHT22;25648;47.808;19.004;2022-09-20T17:16:07;20.80;54.80
39969;DHT22;25648;47.808;19.004;2022-09-20T17:18:34;20.80;54.80
39969;DHT22;25648;47.808;19.004;2022-09-20T17:21:07;20.90;54.70
39969;DHT22;25648;47.808;19.004;2022-09-20T17:23:33;20.80;54.60
39969;DHT22;25648;47.808;19.004;2022-09-20T17:26:11;20.50;55.10
39969;DHT22;25648;47.808;19.004;2022-09-20T17:28:43;20.50;55.10
39969;DHT22;25648;47.808;19.004;2022-09-20T17:31:14;20.30;55.50
39969;DHT22;25648;47.808;19.004;2022-09-20T17:33:41;20.20;55.80
39969;DHT22;25648;47.808;19.004;2022-09-20T17:36:08;20.30;55.50
39969;DHT22;25648;47.808;19.004;2022-09-20T17:38:36;20.20;55.70
39969;DHT22;25648;47.808;19.004;2022-09-20T17:41:06;19.80;56.10
39969;DHT22;25648;47.808;19.004;2022-09-20T17:43:34;19.70;56.20
39969;DHT22;25648;47.808;19.004;2022-09-20T17:46:13;19.60;56.50
39969;DHT22;25648;47.808;19.004;2022-09-20T17:48:40;19.60;56.40
39969;DHT22;25648;47.808;19.004;2022-09-20T17:51:08;19.40;56.60
39969;DHT22;25648;47.808;19.004;2022-09-20T17:53:35;19.30;56.80
39969;DHT22;25648;47.808;19.004;2022-09-20T17:56:02;19.50;56.70
39969;DHT22;25648;47.808;19.004;2022-09-20T17:58:28;19.80;55.70
39969;DHT22;25648;47.808;19.004;2022-09-20T18:01:01;19.60;56.00
39969;DHT22;25648;47.808;19.004;2022-09-20T18:03:27;19.60;56.20
39969;DHT22;25648;47.808;19.004;2022-09-20T18:05:53;19.50;56.10
39969;DHT22;25648;47.808;19.004;2022-09-20T18:08:18;19.70;55.90
39969;DHT22;25648;47.808;19.004;2022-09-20T18:10:57;19.90;55.40
39969;DHT22;25648;47.808;19.004;2022-09-20T18:13:23;20.30;55.10
39969;DHT22;25648;47.808;19.004;2022-09-20T18:15:52;20.40;54.50
39969;DHT22;25648;47.808;19.004;2022-09-20T18:18:18;20.30;54.60
39969;DHT22;25648;47.808;19.004;2022-09-20T18:20:44;20.50;54.60
39969;DHT22;25648;47.808;19.004;2022-09-20T18:23:10;20.50;54.60
39969;DHT22;25648;47.808;19.004;2022-09-20T18:25:36;20.30;55.00
39969;DHT22;25648;47.808;19.004;2022-09-20T18:28:22;20.00;55.80
39969;DHT22;25648;47.808;19.004;2022-09-20T18:30:57;19.70;56.00
39969;DHT22;25648;47.808;19.004;2022-09-20T18:33:24;19.50;56.40
39969;DHT22;25648;47.808;19.004;2022-09-20T18:35:50;19.50;56.00
39969;DHT22;25648;47.808;19.004;2022-09-20T18:38:16;19.40;56.10
39969;DHT22;25648;47.808;19.004;2022-09-20T18:40:43;19.40;56.00
39969;DHT22;25648;47.808;19.004;2022-09-20T18:43:18;19.30;56.20
39969;DHT22;25648;47.808;19.004;2022-09-20T18:45:50;19.20;56.60
39969;DHT22;25648;47.808;19.004;2022-09-20T18:48:20;19.20;57.00
39969;DHT22;25648;47.808;19.004;2022-09-20T18:51:01;19.50;56.50
39969;DHT22;25648;47.808;19.004;2022-09-20T18:53:29;19.40;56.50
39969;DHT22;25648;47.808;19.004;2022-09-20T18:55:56;19.30;56.90
39969;DHT22;25648;47.808;19.004;2022-09-20T18:58:29;19.50;56.70
39969;DHT22;25648;47.808;19.004;2022-09-20T19:03:54;19.90;55.60
39969;DHT22;25648;47.808;19.004;2022-09-20T19:06:24;19.80;55.40
39969;DHT22;25648;47.808;19.004;2022-09-20T19:09:07;19.70;55.90
39969;DHT22;25648;47.808;19.004;2022-09-20T19:11:39;19.60;56.00
39969;DHT22;25648;47.808;19.004;2022-09-20T19:14:14;19.70;56.00
39969;DHT22;25648;47.808;19.004;2022-09-20T19:16:46;19.70;55.90
39969;DHT22;25648;47.808;19.004;2022-09-20T19:25:19;20.00;55.20
39969;DHT22;25648;47.808;19.004;2022-09-20T19:27:48;19.70;55.60
39969;DHT22;25648;47.808;19.004;2022-09-20T19:30:15;19.50;56.30
39969;DHT22;25648;47.808;19.004;2022-09-20T19:32:42;19.60;56.10
39969;DHT22;25648;47.808;19.004;2022-09-20T19:35:24;19.40;56.30
39969;DHT22;25648;47.808;19.004;2022-09-20T19:38:10;19.50;56.30
39969;DHT22;25648;47.808;19.004;2022-09-20T19:40:56;19.50;56.20
39969;DHT22;25648;47.808;19.004;2022-09-20T19:43:34;19.60;56.10
39969;DHT22;25648;47.808;19.004;2022-09-20T19:49:13;19.40;56.80
39969;DHT22;25648;47.808;19.004;2022-09-20T19:51:40;19.30;56.20
39969;DHT22;25648;47.808;19.004;2022-09-20T19:54:09;19.20;56.90
39969;DHT22;25648;47.808;19.004;2022-09-20T19:56:44;19.20;57.10
39969;DHT22;25648;47.808;19.004;2022-09-20T19:59:13;19.50;56.60
39969;DHT22;25648;47.808;19.004;2022-09-20T20:01:39;19.40;56.80
39969;DHT22;25648;47.808;19.004;2022-09-20T20:04:07;19.50;56.60
39969;DHT22;25648;47.808;19.004;2022-09-20T20:07:07;19.70;56.10
39969;DHT22;25648;47.808;19.004;2022-09-20T20:12:31;19.60;56.30
39969;DHT22;25648;47.808;19.004;2022-09-20T20:20:47;19.30;56.90
39969;DHT22;25648;47.808;19.004;2022-09-20T20:26:08;19.40;56.70
39969;DHT22;25648;47.808;19.004;2022-09-20T20:28:35;19.50;56.50
39969;DHT22;25648;47.808;19.004;2022-09-20T20:31:01;19.50;56.80
39969;DHT22;25648;47.808;19.004;2022-09-20T20:33:27;19.50;56.60
39969;DHT22;25648;47.808;19.004;2022-09-20T20:35:54;19.70;56.50
39969;DHT22;25648;47.808;19.004;2022-09-20T20:38:21;19.70;56.60
39969;DHT22;25648;47.808;19.004;2022-09-20T20:40:56;19.70;56.20
39969;DHT22;25648;47.808;19.004;2022-09-20T20:43:23;19.60;56.50
39969;DHT22;25648;47.808;19.004;2022-09-20T20:45:50;19.70;56.30
39969;DHT22;25648;47.808;19.004;2022-09-20T20:48:15;19.70;56.20
39969;DHT22;25648;47.808;19.004;2022-09-20T20:50:41;19.60;56.40
39969;DHT22;25648;47.808;19.004;2022-09-20T20:53:07;19.50;56.50
39969;DHT22;25648;47.808;19.004;2022-09-20T20:55:32;19.20;57.50
39969;DHT22;25648;47.808;19.004;2022-09-20T20:57:58;19.00;57.10
39969;DHT22;25648;47.808;19.004;2022-09-20T21:00:25;19.10;57.30
39969;DHT22;25648;47.808;19.004;2022-09-20T21:02:58;19.30;56.70
39969;DHT22;25648;47.808;19.004;2022-09-20T21:05:27;19.30;56.80
39969;DHT22;25648;47.808;19.004;2022-09-20T21:07:53;19.20;56.90
39969;DHT22;25648;47.808;19.004;2022-09-20T21:10:20;19.20;57.00
39969;DHT22;25648;47.808;19.004;2022-09-20T21:12:47;19.30;57.00
39969;DHT22;25648;47.808;19.004;2022-09-20T21:15:15;19.30;57.00
39969;DHT22;25648;47.808;19.004;2022-09-20T21:17:48;19.20;57.00
39969;DHT22;25648;47.808;19.004;2022-09-20T21:20:14;19.10;57.60
39969;DHT22;25648;47.808;19.004;2022-09-20T21:22:39;19.10;57.70
39969;DHT22;25648;47.808;19.004;2022-09-20T21:25:06;19.20;57.70
39969;DHT22;25648;47.808;19.004;2022-09-20T21:27:32;19.20;57.60